createdAt,value
2019-02-25T00:00:18.323Z,18.96
2019-02-25T00:01:17.809Z,18.97
2019-02-25T00:02:19.166Z,18.97
2019-02-25T00:03:17.682Z,18.94
2019-02-25T00:04:17.916Z,18.96
2019-02-25T00:05:17.532Z,18.95
2019-02-25T00:06:17.270Z,18.94
2019-02-25T00:07:18.042Z,18.95
2019-02-25T00:08:17.985Z,18.94
2019-02-25T00:09:17.492Z,18.93
2019-02-25T00:10:17.401Z,18.93
2019-02-25T00:11:18.020Z,18.92
2019-02-25T00:12:17.383Z,18.93
2019-02-25T00:13:17.530Z,18.92
2019-02-25T00:14:18.023Z,18.91
2019-02-25T00:15:17.396Z,18.93
2019-02-25T00:16:17.556Z,18.91
2019-02-25T00:17:17.499Z,18.88
2019-02-25T00:18:17.740Z,18.88
2019-02-25T00:19:17.748Z,18.89
2019-02-25T00:20:17.547Z,18.88
2019-02-25T00:21:17.484Z,18.88
2019-02-25T00:22:17.544Z,18.87
2019-02-25T00:23:17.546Z,18.88
2019-02-25T00:24:19.095Z,18.86
2019-02-25T00:25:17.975Z,18.85
2019-02-25T00:26:17.157Z,18.86
2019-02-25T00:27:17.691Z,18.84
2019-02-25T00:28:17.343Z,18.85
2019-02-25T00:29:17.906Z,18.87
2019-02-25T00:30:17.923Z,18.85
2019-02-25T00:31:17.523Z,18.85
2019-02-25T00:32:18.829Z,18.84
2019-02-25T00:33:18.223Z,18.84
2019-02-25T00:34:17.724Z,18.83
2019-02-25T00:35:18.446Z,18.82
2019-02-25T00:36:17.721Z,18.85
2019-02-25T00:37:19.242Z,18.83
2019-02-25T00:38:17.474Z,18.83
2019-02-25T00:39:17.518Z,18.81
2019-02-25T00:40:17.566Z,18.83
2019-02-25T00:41:17.154Z,18.82
2019-02-25T00:42:17.331Z,18.82
2019-02-25T00:43:17.411Z,18.8
2019-02-25T00:44:17.397Z,18.82
2019-02-25T00:45:18.156Z,18.8
2019-02-25T00:46:17.398Z,18.78
2019-02-25T00:47:17.185Z,18.8
2019-02-25T00:48:17.344Z,18.77
2019-02-25T00:49:17.521Z,18.78
2019-02-25T00:50:17.535Z,18.77
2019-02-25T00:51:18.002Z,18.78
2019-02-25T00:52:17.341Z,18.77
2019-02-25T00:53:17.392Z,18.77
2019-02-25T00:54:17.267Z,18.76
2019-02-25T00:55:17.461Z,18.77
2019-02-25T00:56:17.315Z,18.76
2019-02-25T00:57:18.124Z,18.77
2019-02-25T00:58:17.511Z,18.74
2019-02-25T00:59:17.377Z,18.72
2019-02-25T01:00:17.414Z,18.77
2019-02-25T01:01:17.524Z,18.76
2019-02-25T01:02:17.360Z,18.73
2019-02-25T01:03:17.609Z,18.73
2019-02-25T01:04:17.219Z,18.72
2019-02-25T01:05:17.257Z,18.72
2019-02-25T01:06:17.106Z,18.7
2019-02-25T01:07:17.962Z,18.71
2019-02-25T01:08:17.396Z,18.72
2019-02-25T01:09:17.067Z,18.71
2019-02-25T01:10:17.618Z,18.71
2019-02-25T01:11:17.507Z,18.71
2019-02-25T01:12:17.759Z,18.7
2019-02-25T01:13:18.134Z,18.7
2019-02-25T01:14:17.175Z,18.7
2019-02-25T01:15:17.267Z,18.69
2019-02-25T01:16:17.554Z,18.69
2019-02-25T01:17:17.111Z,18.69
2019-02-25T01:18:17.248Z,18.68
2019-02-25T01:19:17.644Z,18.68
2019-02-25T01:20:17.568Z,18.67
2019-02-25T01:21:18.183Z,18.68
2019-02-25T01:22:17.766Z,18.66
2019-02-25T01:23:17.215Z,18.67
2019-02-25T01:24:17.657Z,18.67
2019-02-25T01:25:17.703Z,18.67
2019-02-25T01:26:17.727Z,18.66
2019-02-25T01:27:17.301Z,18.65
2019-02-25T01:28:17.429Z,18.64
2019-02-25T01:29:17.698Z,18.65
2019-02-25T01:30:17.524Z,18.64
2019-02-25T01:31:17.015Z,18.64
2019-02-25T01:32:17.535Z,18.64
2019-02-25T01:33:19.256Z,18.62
2019-02-25T01:34:18.646Z,18.63
2019-02-25T01:35:19.151Z,18.61
2019-02-25T01:36:17.220Z,18.62
2019-02-25T01:37:17.056Z,18.63
2019-02-25T01:38:17.255Z,18.59
2019-02-25T01:39:17.074Z,18.62
2019-02-25T01:40:17.493Z,18.59
2019-02-25T01:41:17.383Z,18.62
2019-02-25T01:42:18.314Z,18.62
2019-02-25T01:43:19.176Z,18.58
2019-02-25T01:44:16.982Z,18.61
2019-02-25T01:45:17.364Z,18.58
2019-02-25T01:46:17.056Z,18.58
2019-02-25T01:47:17.415Z,18.61
2019-02-25T01:48:17.382Z,18.57
2019-02-25T01:49:17.021Z,18.57
2019-02-25T01:50:17.368Z,18.56
2019-02-25T01:51:17.452Z,18.56
2019-02-25T01:52:17.158Z,18.57
2019-02-25T01:53:17.284Z,18.56
2019-02-25T01:54:17.315Z,18.55
2019-02-25T01:55:17.342Z,18.55
2019-02-25T01:56:18.474Z,18.56
2019-02-25T01:57:17.505Z,18.55
2019-02-25T01:58:17.186Z,18.54
2019-02-25T01:59:17.195Z,18.54
2019-02-25T02:00:17.750Z,18.53
2019-02-25T02:01:17.452Z,18.54
2019-02-25T02:02:17.454Z,18.53
2019-02-25T02:03:17.439Z,18.53
2019-02-25T02:04:17.559Z,18.52
2019-02-25T02:05:17.659Z,18.53
2019-02-25T02:06:17.389Z,18.52
2019-02-25T02:07:17.526Z,18.53
2019-02-25T02:08:17.812Z,18.52
2019-02-25T02:09:17.306Z,18.5
2019-02-25T02:10:17.403Z,18.49
2019-02-25T02:11:17.497Z,18.52
2019-02-25T02:12:17.319Z,18.5
2019-02-25T02:13:17.514Z,18.5
2019-02-25T02:14:17.099Z,18.49
2019-02-25T02:15:17.442Z,18.49
2019-02-25T02:16:17.496Z,18.5
2019-02-25T02:17:19.023Z,18.49
2019-02-25T02:18:18.156Z,18.5
2019-02-25T02:19:17.489Z,18.48
2019-02-25T02:20:17.371Z,18.48
2019-02-25T02:21:17.409Z,18.47
2019-02-25T02:22:17.587Z,18.47
2019-02-25T02:23:17.296Z,18.48
2019-02-25T02:24:19.156Z,18.47
2019-02-25T02:25:17.329Z,18.44
2019-02-25T02:26:17.286Z,18.48
2019-02-25T02:27:17.302Z,18.46
2019-02-25T02:28:17.193Z,18.44
2019-02-25T02:29:17.132Z,18.44
2019-02-25T02:30:17.555Z,18.43
2019-02-25T02:31:17.757Z,18.42
2019-02-25T02:32:17.385Z,18.43
2019-02-25T02:33:19.121Z,18.42
2019-02-25T02:34:17.314Z,18.41
2019-02-25T02:35:17.375Z,18.42
2019-02-25T02:36:17.319Z,18.41
2019-02-25T02:37:18.964Z,18.46
2019-02-25T02:38:17.168Z,18.41
2019-02-25T02:39:19.180Z,18.41
2019-02-25T02:40:17.635Z,18.41
2019-02-25T02:41:17.375Z,18.4
2019-02-25T02:42:17.503Z,18.4
2019-02-25T02:43:17.352Z,18.4
2019-02-25T02:44:17.569Z,18.39
2019-02-25T02:45:17.451Z,18.38
2019-02-25T02:46:17.274Z,18.38
2019-02-25T02:47:19.127Z,18.38
2019-02-25T02:48:17.163Z,18.38
2019-02-25T02:49:17.520Z,18.38
2019-02-25T02:50:17.799Z,18.37
2019-02-25T02:51:17.133Z,18.37
2019-02-25T02:52:17.152Z,18.37
2019-02-25T02:53:17.407Z,18.37
2019-02-25T02:54:17.770Z,18.37
2019-02-25T02:55:17.213Z,18.37
2019-02-25T02:56:17.257Z,18.36
2019-02-25T02:57:17.759Z,18.35
2019-02-25T02:58:17.128Z,18.36
2019-02-25T02:59:17.461Z,18.34
2019-02-25T03:00:17.297Z,18.36
2019-02-25T03:01:18.307Z,18.37
2019-02-25T03:02:18.080Z,18.36
2019-02-25T03:03:17.211Z,18.33
2019-02-25T03:04:17.785Z,18.33
2019-02-25T03:05:17.447Z,18.33
2019-02-25T03:06:19.067Z,18.35
2019-02-25T03:07:19.074Z,18.33
2019-02-25T03:08:17.123Z,18.32
2019-02-25T03:09:17.115Z,18.3
2019-02-25T03:10:17.407Z,18.33
2019-02-25T03:11:17.311Z,18.33
2019-02-25T03:12:17.393Z,18.33
2019-02-25T03:13:17.392Z,18.32
2019-02-25T03:14:17.442Z,18.32
2019-02-25T03:15:17.676Z,18.33
2019-02-25T03:16:17.196Z,18.32
2019-02-25T03:17:17.476Z,18.29
2019-02-25T03:18:17.238Z,18.29
2019-02-25T03:19:17.314Z,18.29
2019-02-25T03:20:17.407Z,18.29
2019-02-25T03:21:17.747Z,18.29
2019-02-25T03:22:17.615Z,18.27
2019-02-25T03:23:19.028Z,18.29
2019-02-25T03:24:17.928Z,18.28
2019-02-25T03:25:17.639Z,18.27
2019-02-25T03:26:17.145Z,18.28
2019-02-25T03:27:17.436Z,18.27
2019-02-25T03:28:17.535Z,18.27
2019-02-25T03:29:17.661Z,18.29
2019-02-25T03:30:17.314Z,18.27
2019-02-25T03:31:17.283Z,18.26
2019-02-25T03:32:17.791Z,18.26
2019-02-25T03:33:16.959Z,18.27
2019-02-25T03:34:17.274Z,18.25
2019-02-25T03:35:17.653Z,18.26
2019-02-25T03:36:17.326Z,18.25
2019-02-25T03:37:17.105Z,18.24
2019-02-25T03:38:18.445Z,18.24
2019-02-25T03:39:16.987Z,18.22
2019-02-25T03:40:17.553Z,18.23
2019-02-25T03:41:17.174Z,18.23
2019-02-25T03:42:17.362Z,18.22
2019-02-25T03:43:17.525Z,18.24
2019-02-25T03:44:17.365Z,18.24
2019-02-25T03:45:18.091Z,18.22
2019-02-25T03:46:17.320Z,18.22
2019-02-25T03:47:17.690Z,18.22
2019-02-25T03:48:17.064Z,18.22
2019-02-25T03:49:17.462Z,18.21
2019-02-25T03:50:17.415Z,18.22
2019-02-25T03:51:17.353Z,18.22
2019-02-25T03:52:17.411Z,18.2
2019-02-25T03:53:18.037Z,18.2
2019-02-25T03:54:17.576Z,18.21
2019-02-25T03:55:19.223Z,18.19
2019-02-25T03:56:17.192Z,18.2
2019-02-25T03:57:17.198Z,18.18
2019-02-25T03:58:17.311Z,18.17
2019-02-25T03:59:17.072Z,18.18
2019-02-25T04:00:17.444Z,18.18
2019-02-25T04:01:18.168Z,18.17
2019-02-25T04:02:17.273Z,18.18
2019-02-25T04:03:17.694Z,18.15
2019-02-25T04:04:17.494Z,18.17
2019-02-25T04:05:17.310Z,18.18
2019-02-25T04:06:18.315Z,18.17
2019-02-25T04:07:18.036Z,18.15
2019-02-25T04:08:17.484Z,18.15
2019-02-25T04:09:18.426Z,18.18
2019-02-25T04:10:17.556Z,18.17
2019-02-25T04:11:18.093Z,18.15
2019-02-25T04:12:17.476Z,18.17
2019-02-25T04:13:17.397Z,18.15
2019-02-25T04:14:19.040Z,18.15
2019-02-25T04:15:17.263Z,18.15
2019-02-25T04:16:17.217Z,18.15
2019-02-25T04:17:17.336Z,18.14
2019-02-25T04:18:17.513Z,18.13
2019-02-25T04:19:17.132Z,18.13
2019-02-25T04:20:17.338Z,18.13
2019-02-25T04:21:17.281Z,18.12
2019-02-25T04:22:17.128Z,18.12
2019-02-25T04:23:17.549Z,18.13
2019-02-25T04:24:17.555Z,18.12
2019-02-25T04:25:17.388Z,18.12
2019-02-25T04:26:17.455Z,18.11
2019-02-25T04:27:19.087Z,18.1
2019-02-25T04:28:17.998Z,18.11
2019-02-25T04:29:17.690Z,18.09
2019-02-25T04:30:17.724Z,18.08
2019-02-25T04:31:17.065Z,18.09
2019-02-25T04:32:17.913Z,18.11
2019-02-25T04:33:17.483Z,18.08
2019-02-25T04:34:19.069Z,18.08
2019-02-25T04:35:17.544Z,18.09
2019-02-25T04:36:17.185Z,18.1
2019-02-25T04:37:17.101Z,18.09
2019-02-25T04:38:17.185Z,18.1
2019-02-25T04:39:17.251Z,18.11
2019-02-25T04:40:17.043Z,18.08
2019-02-25T04:41:17.249Z,18.09
2019-02-25T04:42:17.776Z,18.09
2019-02-25T04:43:17.387Z,18.08
2019-02-25T04:44:17.380Z,18.08
2019-02-25T04:45:17.545Z,18.09
2019-02-25T04:46:17.721Z,18.12
2019-02-25T04:47:17.089Z,18.09
2019-02-25T04:48:17.129Z,18.12
2019-02-25T04:49:17.116Z,18.12
2019-02-25T04:50:17.204Z,18.11
2019-02-25T04:51:17.940Z,18.11
2019-02-25T04:52:18.238Z,18.12
2019-02-25T04:53:17.327Z,18.14
2019-02-25T04:54:17.465Z,18.13
2019-02-25T04:55:17.607Z,18.13
2019-02-25T04:56:17.065Z,18.15
2019-02-25T04:57:17.339Z,18.15
2019-02-25T04:58:17.479Z,18.17
2019-02-25T04:59:17.174Z,18.15
2019-02-25T05:00:18.482Z,18.17
2019-02-25T05:01:17.494Z,18.17
2019-02-25T05:02:17.418Z,18.18
2019-02-25T05:03:19.088Z,18.2
2019-02-25T05:04:17.540Z,18.2
2019-02-25T05:05:17.352Z,18.22
2019-02-25T05:06:17.861Z,18.22
2019-02-25T05:07:17.213Z,18.25
2019-02-25T05:08:17.174Z,18.27
2019-02-25T05:09:17.907Z,18.28
2019-02-25T05:10:17.138Z,18.29
2019-02-25T05:11:17.805Z,18.33
2019-02-25T05:12:18.180Z,18.33
2019-02-25T05:13:18.104Z,18.36
2019-02-25T05:14:17.361Z,18.38
2019-02-25T05:15:17.313Z,18.38
2019-02-25T05:16:17.594Z,18.41
2019-02-25T05:17:17.065Z,18.43
2019-02-25T05:18:18.150Z,18.41
2019-02-25T05:19:17.507Z,18.44
2019-02-25T05:20:17.488Z,18.47
2019-02-25T05:21:17.369Z,18.49
2019-02-25T05:22:17.432Z,18.52
2019-02-25T05:23:17.538Z,18.51
2019-02-25T05:24:17.272Z,18.52
2019-02-25T05:25:17.829Z,18.57
2019-02-25T05:26:17.412Z,18.56
2019-02-25T05:27:17.447Z,18.57
2019-02-25T05:28:17.534Z,18.61
2019-02-25T05:29:17.505Z,18.62
2019-02-25T05:30:17.347Z,18.62
2019-02-25T05:31:17.194Z,18.66
2019-02-25T05:32:17.839Z,18.66
2019-02-25T05:33:18.001Z,18.68
2019-02-25T05:34:18.465Z,18.68
2019-02-25T05:35:16.969Z,18.71
2019-02-25T05:36:19.033Z,18.72
2019-02-25T05:37:17.554Z,18.73
2019-02-25T05:38:17.231Z,18.72
2019-02-25T05:39:17.374Z,18.77
2019-02-25T05:40:17.470Z,18.78
2019-02-25T05:41:17.507Z,18.77
2019-02-25T05:42:17.730Z,18.8
2019-02-25T05:43:18.719Z,18.84
2019-02-25T05:44:17.041Z,18.82
2019-02-25T05:45:17.172Z,18.83
2019-02-25T05:46:17.337Z,18.84
2019-02-25T05:47:17.323Z,18.86
2019-02-25T05:48:17.102Z,18.88
2019-02-25T05:49:17.359Z,18.89
2019-02-25T05:50:17.467Z,18.92
2019-02-25T05:51:17.466Z,18.91
2019-02-25T05:52:17.578Z,18.94
2019-02-25T05:53:17.273Z,18.95
2019-02-25T05:54:17.564Z,18.95
2019-02-25T05:55:17.023Z,18.97
2019-02-25T05:56:17.672Z,18.97
2019-02-25T05:57:17.933Z,18.99
2019-02-25T05:58:16.980Z,19.01
2019-02-25T05:59:17.506Z,19.03
2019-02-25T06:00:17.468Z,19.02
2019-02-25T06:01:17.191Z,19.02
2019-02-25T06:02:17.334Z,18.91
2019-02-25T06:03:17.743Z,18.82
2019-02-25T06:04:17.348Z,18.71
2019-02-25T06:05:17.463Z,18.63
2019-02-25T06:06:17.119Z,18.53
2019-02-25T06:07:17.266Z,18.43
2019-02-25T06:08:17.089Z,18.33
2019-02-25T06:09:17.807Z,18.3
2019-02-25T06:10:17.125Z,18.18
2019-02-25T06:11:17.498Z,18.1
2019-02-25T06:12:17.848Z,18.07
2019-02-25T06:13:17.035Z,17.93
2019-02-25T06:14:18.144Z,17.94
2019-02-25T06:15:17.225Z,17.95
2019-02-25T06:16:17.390Z,17.95
2019-02-25T06:17:17.759Z,17.99
2019-02-25T06:18:18.880Z,18.03
2019-02-25T06:19:17.172Z,18.08
2019-02-25T06:20:17.437Z,18.08
2019-02-25T06:21:17.405Z,18.11
2019-02-25T06:22:17.039Z,18.18
2019-02-25T06:23:19.075Z,18.18
2019-02-25T06:24:17.114Z,18.2
2019-02-25T06:25:17.495Z,18.25
2019-02-25T06:26:17.307Z,18.27
2019-02-25T06:27:17.306Z,18.29
2019-02-25T06:28:17.261Z,18.33
2019-02-25T06:29:16.962Z,18.35
2019-02-25T06:30:17.442Z,18.37
2019-02-25T06:31:17.438Z,18.38
2019-02-25T06:32:17.546Z,18.4
2019-02-25T06:33:17.691Z,18.42
2019-02-25T06:34:17.315Z,18.43
2019-02-25T06:35:17.078Z,18.43
2019-02-25T06:36:19.008Z,18.46
2019-02-25T06:37:19.077Z,18.48
2019-02-25T06:38:17.198Z,18.48
2019-02-25T06:39:18.231Z,18.49
2019-02-25T06:40:18.976Z,18.49
2019-02-25T06:41:16.948Z,18.5
2019-02-25T06:42:17.164Z,18.51
2019-02-25T06:43:18.871Z,18.52
2019-02-25T06:44:17.386Z,18.53
2019-02-25T06:45:17.475Z,18.52
2019-02-25T06:46:17.062Z,18.55
2019-02-25T06:47:17.242Z,18.56
2019-02-25T06:48:18.681Z,18.54
2019-02-25T06:49:17.045Z,18.55
2019-02-25T06:50:17.124Z,18.57
2019-02-25T06:51:17.663Z,18.57
2019-02-25T06:52:17.333Z,18.56
2019-02-25T06:53:17.145Z,18.57
2019-02-25T06:54:17.797Z,18.61
2019-02-25T06:55:17.297Z,18.58
2019-02-25T06:56:17.333Z,18.58
2019-02-25T06:57:18.869Z,18.58
2019-02-25T06:58:17.178Z,18.57
2019-02-25T06:59:17.109Z,18.56
2019-02-25T07:00:17.176Z,18.58
2019-02-25T07:01:17.657Z,18.61
2019-02-25T07:02:17.156Z,18.58
2019-02-25T07:03:17.344Z,18.58
2019-02-25T07:04:17.085Z,18.59
2019-02-25T07:05:17.603Z,18.62
2019-02-25T07:06:17.462Z,18.59
2019-02-25T07:07:16.969Z,18.58
2019-02-25T07:08:17.403Z,18.61
2019-02-25T07:09:17.238Z,18.61
2019-02-25T07:10:17.183Z,18.59
2019-02-25T07:11:17.295Z,18.59
2019-02-25T07:12:17.347Z,18.59
2019-02-25T07:13:17.120Z,18.61
2019-02-25T07:14:17.327Z,18.58
2019-02-25T07:15:17.443Z,18.59
2019-02-25T07:16:17.244Z,18.59
2019-02-25T07:17:17.165Z,18.59
2019-02-25T07:18:17.218Z,18.57
2019-02-25T07:19:16.899Z,18.58
2019-02-25T07:20:16.981Z,18.57
2019-02-25T07:21:17.055Z,18.56
2019-02-25T07:22:17.696Z,18.57
2019-02-25T07:23:18.120Z,18.57
2019-02-25T07:24:17.001Z,18.58
2019-02-25T07:25:17.103Z,18.54
2019-02-25T07:26:17.416Z,18.57
2019-02-25T07:27:16.939Z,18.55
2019-02-25T07:28:17.084Z,18.56
2019-02-25T07:29:17.418Z,18.57
2019-02-25T07:30:17.443Z,18.53
2019-02-25T07:31:17.353Z,18.53
2019-02-25T07:32:17.553Z,18.55
2019-02-25T07:33:16.981Z,18.53
2019-02-25T07:34:17.475Z,18.51
2019-02-25T07:35:17.379Z,18.53
2019-02-25T07:36:17.995Z,18.51
2019-02-25T07:37:18.299Z,18.53
2019-02-25T07:38:17.391Z,18.5
2019-02-25T07:39:17.015Z,18.51
2019-02-25T07:40:17.419Z,18.49
2019-02-25T07:41:17.415Z,18.51
2019-02-25T07:42:17.106Z,18.5
2019-02-25T07:43:17.478Z,18.5
2019-02-25T07:44:17.954Z,18.49
2019-02-25T07:45:17.336Z,18.49
2019-02-25T07:46:17.663Z,18.49
2019-02-25T07:47:17.545Z,18.49
2019-02-25T07:48:17.153Z,18.46
2019-02-25T07:49:17.585Z,18.47
2019-02-25T07:50:17.494Z,18.47
2019-02-25T07:51:17.181Z,18.46
2019-02-25T07:52:17.278Z,18.46
2019-02-25T07:53:17.783Z,18.49
2019-02-25T07:54:17.444Z,18.46
2019-02-25T07:55:19.069Z,18.46
2019-02-25T07:56:17.316Z,18.46
2019-02-25T07:57:18.928Z,18.46
2019-02-25T07:58:17.435Z,18.44
2019-02-25T07:59:16.961Z,18.43
2019-02-25T08:00:17.201Z,18.43
2019-02-25T08:01:17.524Z,18.43
2019-02-25T08:02:17.355Z,18.43
2019-02-25T08:03:17.386Z,18.44
2019-02-25T08:04:17.406Z,18.47
2019-02-25T08:05:18.083Z,18.42
2019-02-25T08:06:18.906Z,18.44
2019-02-25T08:07:17.037Z,18.43
2019-02-25T08:08:17.521Z,18.44
2019-02-25T08:09:17.030Z,18.46
2019-02-25T08:10:17.151Z,18.46
2019-02-25T08:11:17.189Z,18.44
2019-02-25T08:12:17.340Z,18.43
2019-02-25T08:13:16.967Z,18.43
2019-02-25T08:14:17.413Z,18.43
2019-02-25T08:15:16.964Z,18.44
2019-02-25T08:16:16.877Z,18.43
2019-02-25T08:17:17.273Z,18.44
2019-02-25T08:18:17.687Z,18.43
2019-02-25T08:19:16.854Z,18.41
2019-02-25T08:20:17.606Z,18.42
2019-02-25T08:21:17.174Z,18.42
2019-02-25T08:22:18.784Z,18.42
2019-02-25T08:23:17.628Z,18.41
2019-02-25T08:24:17.353Z,18.4
2019-02-25T08:25:17.442Z,18.4
2019-02-25T08:26:17.435Z,18.4
2019-02-25T08:27:18.181Z,18.4
2019-02-25T08:28:17.615Z,18.4
2019-02-25T08:29:17.226Z,18.38
2019-02-25T08:30:17.581Z,18.4
2019-02-25T08:31:18.829Z,18.39
2019-02-25T08:32:17.170Z,18.38
2019-02-25T08:33:17.130Z,18.37
2019-02-25T08:34:19.588Z,18.39
2019-02-25T08:35:17.232Z,18.4
2019-02-25T08:36:16.940Z,18.37
2019-02-25T08:37:17.372Z,18.38
2019-02-25T08:38:17.303Z,18.37
2019-02-25T08:39:18.214Z,18.37
2019-02-25T08:40:17.082Z,18.37
2019-02-25T08:41:17.178Z,18.37
2019-02-25T08:42:17.127Z,18.35
2019-02-25T08:43:17.372Z,18.36
2019-02-25T08:44:17.522Z,18.36
2019-02-25T08:45:17.370Z,18.37
2019-02-25T08:46:17.261Z,18.38
2019-02-25T08:47:17.374Z,18.39
2019-02-25T08:48:17.321Z,18.41
2019-02-25T08:49:18.302Z,18.41
2019-02-25T08:50:17.924Z,18.43
2019-02-25T08:51:17.299Z,18.42
2019-02-25T08:52:17.226Z,18.43
2019-02-25T08:53:17.107Z,18.43
2019-02-25T08:54:17.538Z,18.47
2019-02-25T08:55:17.246Z,18.49
2019-02-25T08:56:17.415Z,18.52
2019-02-25T08:57:17.060Z,18.53
2019-02-25T08:58:18.447Z,18.57
2019-02-25T08:59:17.228Z,18.54
2019-02-25T09:00:16.910Z,18.56
2019-02-25T09:01:17.189Z,18.59
2019-02-25T09:02:17.287Z,18.65
2019-02-25T09:03:16.984Z,18.63
2019-02-25T09:04:17.210Z,18.68
2019-02-25T09:05:17.456Z,18.7
2019-02-25T09:06:17.223Z,18.72
2019-02-25T09:07:16.967Z,18.71
2019-02-25T09:08:17.958Z,18.74
2019-02-25T09:09:17.392Z,18.78
2019-02-25T09:10:17.491Z,18.81
2019-02-25T09:11:16.980Z,18.82
2019-02-25T09:12:18.394Z,18.81
2019-02-25T09:13:17.222Z,18.84
2019-02-25T09:14:16.991Z,18.88
2019-02-25T09:15:17.479Z,18.88
2019-02-25T09:16:17.261Z,18.94
2019-02-25T09:17:17.310Z,18.94
2019-02-25T09:18:16.958Z,18.99
2019-02-25T09:19:17.108Z,18.99
2019-02-25T09:20:17.119Z,19
2019-02-25T09:21:17.046Z,19.02
2019-02-25T09:22:17.038Z,19.03
2019-02-25T09:23:17.554Z,19.05
2019-02-25T09:24:19.025Z,19.08
2019-02-25T09:25:16.936Z,19.08
2019-02-25T09:26:17.472Z,19.1
2019-02-25T09:27:17.972Z,19.11
2019-02-25T09:28:17.171Z,19.13
2019-02-25T09:29:17.395Z,19.14
2019-02-25T09:30:17.225Z,19.16
2019-02-25T09:31:17.040Z,19.17
2019-02-25T09:32:19.389Z,19.16
2019-02-25T09:33:18.269Z,19.17
2019-02-25T09:34:17.308Z,19.21
2019-02-25T09:35:19.043Z,19.23
2019-02-25T09:36:17.468Z,19.25
2019-02-25T09:37:17.409Z,19.26
2019-02-25T09:38:17.318Z,19.27
2019-02-25T09:39:17.145Z,19.29
2019-02-25T09:40:17.129Z,19.29
2019-02-25T09:41:17.533Z,19.29
2019-02-25T09:42:17.067Z,19.32
2019-02-25T09:43:17.304Z,19.32
2019-02-25T09:44:17.929Z,19.33
2019-02-25T09:45:17.005Z,19.33
2019-02-25T09:46:17.194Z,19.33
2019-02-25T09:47:17.777Z,19.38
2019-02-25T09:48:18.901Z,19.37
2019-02-25T09:49:17.143Z,19.39
2019-02-25T09:50:17.005Z,19.41
2019-02-25T09:51:17.132Z,19.41
2019-02-25T09:52:16.963Z,19.44
2019-02-25T09:53:17.132Z,19.46
2019-02-25T09:54:18.003Z,19.45
2019-02-25T09:55:17.047Z,19.46
2019-02-25T09:56:17.038Z,19.45
2019-02-25T09:57:16.965Z,19.45
2019-02-25T09:58:16.954Z,19.51
2019-02-25T09:59:17.402Z,19.51
2019-02-25T10:00:17.304Z,19.51
2019-02-25T10:01:16.946Z,19.55
2019-02-25T10:02:17.325Z,19.55
2019-02-25T10:03:16.983Z,19.55
2019-02-25T10:04:17.080Z,19.56
2019-02-25T10:05:17.172Z,19.57
2019-02-25T10:06:17.134Z,19.6
2019-02-25T10:07:17.353Z,19.6
2019-02-25T10:08:17.598Z,19.61
2019-02-25T10:09:17.133Z,19.62
2019-02-25T10:10:17.257Z,19.63
2019-02-25T10:11:17.570Z,19.65
2019-02-25T10:12:16.998Z,19.66
2019-02-25T10:13:17.072Z,19.68
2019-02-25T10:14:16.834Z,19.7
2019-02-25T10:15:18.346Z,19.68
2019-02-25T10:16:18.914Z,19.71
2019-02-25T10:17:24.341Z,19.73
2019-02-25T10:18:17.128Z,19.72
2019-02-25T10:19:17.344Z,19.73
2019-02-25T10:20:17.501Z,19.74
2019-02-25T10:21:17.130Z,19.75
2019-02-25T10:22:17.257Z,19.76
2019-02-25T10:23:16.948Z,19.79
2019-02-25T10:24:17.020Z,19.79
2019-02-25T10:25:17.236Z,19.77
2019-02-25T10:26:16.907Z,19.81
2019-02-25T10:27:17.418Z,19.82
2019-02-25T10:28:17.730Z,19.82
2019-02-25T10:29:17.026Z,19.82
2019-02-25T10:30:17.026Z,19.84
2019-02-25T10:31:17.729Z,19.84
2019-02-25T10:32:17.112Z,19.83
2019-02-25T10:33:17.007Z,19.85
2019-02-25T10:34:18.268Z,19.86
2019-02-25T10:35:18.021Z,19.86
2019-02-25T10:36:17.375Z,19.87
2019-02-25T10:37:17.883Z,19.89
2019-02-25T10:38:21.758Z,19.88
2019-02-25T10:39:20.015Z,19.89
2019-02-25T10:40:27.799Z,19.89
2019-02-25T10:41:27.670Z,19.9
2019-02-25T10:42:17.071Z,19.91
2019-02-25T10:43:17.142Z,19.92
2019-02-25T10:44:16.992Z,19.92
2019-02-25T10:45:17.192Z,19.95
2019-02-25T10:46:17.997Z,19.96
2019-02-25T10:47:21.556Z,19.94
2019-02-25T10:48:25.935Z,19.95
2019-02-25T10:49:17.108Z,19.95
2019-02-25T10:50:17.217Z,19.96
2019-02-25T10:51:17.428Z,19.97
2019-02-25T10:52:17.681Z,19.97
2019-02-25T10:53:22.247Z,19.99
2019-02-25T10:54:25.556Z,19.99
2019-02-25T10:55:16.926Z,19.99
2019-02-25T10:56:26.138Z,20
2019-02-25T10:57:16.987Z,19.99
2019-02-25T10:58:17.304Z,19.99
2019-02-25T10:59:17.944Z,19.99
2019-02-25T11:00:16.996Z,20.01
2019-02-25T11:01:24.843Z,20.02
2019-02-25T11:02:19.675Z,20.01
2019-02-25T11:03:22.094Z,20.01
2019-02-25T11:04:26.339Z,20.02
2019-02-25T11:05:27.742Z,20.04
2019-02-25T11:06:16.945Z,20.03
2019-02-25T11:07:16.975Z,20.03
2019-02-25T11:08:17.455Z,20.03
2019-02-25T11:09:18.305Z,20.03
2019-02-25T11:10:22.591Z,20.04
2019-02-25T11:11:27.244Z,20.06
2019-02-25T11:12:17.414Z,20.05
2019-02-25T11:13:17.184Z,20.07
2019-02-25T11:14:17.054Z,20.06
2019-02-25T11:15:17.304Z,20.06
2019-02-25T11:16:20.692Z,20.07
2019-02-25T11:17:24.675Z,20.09
2019-02-25T11:18:28.366Z,20.1
2019-02-25T11:19:16.770Z,20.11
2019-02-25T11:20:17.693Z,20.1
2019-02-25T11:21:16.980Z,20.11
2019-02-25T11:22:17.192Z,20.1
2019-02-25T11:23:21.802Z,20.12
2019-02-25T11:24:25.623Z,20.12
2019-02-25T11:25:28.297Z,20.11
2019-02-25T11:26:16.913Z,20.12
2019-02-25T11:27:18.862Z,20.14
2019-02-25T11:28:26.303Z,20.12
2019-02-25T11:29:17.280Z,20.14
2019-02-25T11:30:24.233Z,20.12
2019-02-25T11:31:29.360Z,20.12
2019-02-25T11:32:27.820Z,20.12
2019-02-25T11:33:17.007Z,20.12
2019-02-25T11:34:17.382Z,20.13
2019-02-25T11:35:17.091Z,20.14
2019-02-25T11:36:22.252Z,20.13
2019-02-25T11:37:27.105Z,20.12
2019-02-25T11:38:17.108Z,20.12
2019-02-25T11:39:17.210Z,20.15
2019-02-25T11:40:18.203Z,20.16
2019-02-25T11:41:17.125Z,20.15
2019-02-25T11:42:20.878Z,20.14
2019-02-25T11:43:21.805Z,20.14
2019-02-25T11:44:30.455Z,20.14
2019-02-25T11:45:18.824Z,20.13
2019-02-25T11:46:17.371Z,20.14
2019-02-25T11:47:17.039Z,20.13
2019-02-25T11:48:18.824Z,20.15
2019-02-25T11:49:17.365Z,20.16
2019-02-25T11:50:17.770Z,20.15
2019-02-25T11:51:17.223Z,20.16
2019-02-25T11:52:17.551Z,20.17
2019-02-25T11:53:16.962Z,20.16
2019-02-25T11:54:17.124Z,20.18
2019-02-25T11:55:17.335Z,20.16
2019-02-25T11:56:17.007Z,20.18
2019-02-25T11:57:17.978Z,20.16
2019-02-25T11:58:17.317Z,20.18
2019-02-25T11:59:17.397Z,20.18
2019-02-25T12:00:17.231Z,20.18
2019-02-25T12:01:17.083Z,20.17
2019-02-25T12:02:26.330Z,20.19
2019-02-25T12:03:17.605Z,20.19
2019-02-25T12:04:17.324Z,20.19
2019-02-25T12:05:16.971Z,20.19
2019-02-25T12:06:17.475Z,20.18
2019-02-25T12:07:17.476Z,20.2
2019-02-25T12:08:17.110Z,20.18
2019-02-25T12:09:18.840Z,20.19
2019-02-25T12:10:17.190Z,20.2
2019-02-25T12:11:17.156Z,20.21
2019-02-25T12:12:17.027Z,20.22
2019-02-25T12:13:17.560Z,20.21
2019-02-25T12:14:17.914Z,20.21
2019-02-25T12:15:18.779Z,20.2
2019-02-25T12:16:17.248Z,20.22
2019-02-25T12:17:17.239Z,20.2
2019-02-25T12:18:17.177Z,20.21
2019-02-25T12:19:18.527Z,20.2
2019-02-25T12:20:17.177Z,20.2
2019-02-25T12:21:16.947Z,20.2
2019-02-25T12:22:17.308Z,20.2
2019-02-25T12:23:17.493Z,20.21
2019-02-25T12:24:17.108Z,20.2
2019-02-25T12:25:17.975Z,20.2
2019-02-25T12:26:16.800Z,20.21
2019-02-25T12:27:17.218Z,20.24
2019-02-25T12:28:17.164Z,20.25
2019-02-25T12:29:17.129Z,20.22
2019-02-25T12:30:17.215Z,20.21
2019-02-25T12:31:17.554Z,20.22
2019-02-25T12:32:17.368Z,20.22
2019-02-25T12:33:17.031Z,20.24
2019-02-25T12:34:17.256Z,20.25
2019-02-25T12:35:16.901Z,20.22
2019-02-25T12:36:16.832Z,20.22
2019-02-25T12:37:17.046Z,20.2
2019-02-25T12:38:17.724Z,20.18
2019-02-25T12:39:17.399Z,20.18
2019-02-25T12:40:17.158Z,20.17
2019-02-25T12:41:16.917Z,20.16
2019-02-25T12:42:17.162Z,20.16
2019-02-25T12:43:16.878Z,20.18
2019-02-25T12:44:18.840Z,20.18
2019-02-25T12:45:16.877Z,20.17
2019-02-25T12:46:17.811Z,20.21
2019-02-25T12:47:17.989Z,20.19
2019-02-25T12:48:17.310Z,20.22
2019-02-25T12:49:17.902Z,20.22
2019-02-25T12:50:17.184Z,20.24
2019-02-25T12:51:17.176Z,20.22
2019-02-25T12:52:17.014Z,20.24
2019-02-25T12:53:17.218Z,20.24
2019-02-25T12:54:17.434Z,20.26